sensor_id;sensor_type;location;lat;lon;timestamp;P1;durP1;ratioP1;P2;durP2;ratioP2
48363;SDS011;34170;54.364;18.582;2023-02-28T00:01:29;79.07;;;31.58;;
48363;SDS011;34170;54.364;18.582;2023-02-28T00:03:58;72.30;;;30.10;;
48363;SDS011;34170;54.364;18.582;2023-02-28T00:06:25;73.55;;;29.88;;
48363;SDS011;34170;54.364;18.582;2023-02-28T00:08:53;77.40;;;31.67;;
48363;SDS011;34170;54.364;18.582;2023-02-28T00:11:20;75.70;;;30.13;;
48363;SDS011;34170;54.364;18.582;2023-02-28T00:13:48;83.10;;;33.92;;
48363;SDS011;34170;54.364;18.582;2023-02-28T00:16:18;74.80;;;32.63;;
48363;SDS011;34170;54.364;18.582;2023-02-28T00:18:47;86.82;;;36.33;;
48363;SDS011;34170;54.364;18.582;2023-02-28T00:21:15;76.93;;;31.10;;
48363;SDS011;34170;54.364;18.582;2023-02-28T00:23:44;75.45;;;30.65;;
48363;SDS011;34170;54.364;18.582;2023-02-28T00:26:12;71.93;;;29.45;;
48363;SDS011;34170;54.364;18.582;2023-02-28T00:28:44;72.78;;;30.00;;
48363;SDS011;34170;54.364;18.582;2023-02-28T00:31:11;74.13;;;29.85;;
48363;SDS011;34170;54.364;18.582;2023-02-28T00:33:39;77.28;;;31.27;;
48363;SDS011;34170;54.364;18.582;2023-02-28T00:36:07;76.50;;;28.90;;
48363;SDS011;34170;54.364;18.582;2023-02-28T00:38:37;70.23;;;30.17;;
48363;SDS011;34170;54.364;18.582;2023-02-28T00:41:06;65.78;;;28.05;;
48363;SDS011;34170;54.364;18.582;2023-02-28T00:43:35;66.15;;;27.40;;
48363;SDS011;34170;54.364;18.582;2023-02-28T00:46:04;65.95;;;27.13;;
48363;SDS011;34170;54.364;18.582;2023-02-28T00:48:32;62.50;;;26.75;;
48363;SDS011;34170;54.364;18.582;2023-02-28T00:51:00;58.88;;;24.42;;
48363;SDS011;34170;54.364;18.582;2023-02-28T00:53:28;62.45;;;26.25;;
48363;SDS011;34170;54.364;18.582;2023-02-28T00:55:57;58.60;;;25.42;;
48363;SDS011;34170;54.364;18.582;2023-02-28T00:58:26;62.35;;;25.95;;
48363;SDS011;34170;54.364;18.582;2023-02-28T01:00:53;60.85;;;25.63;;
48363;SDS011;34170;54.364;18.582;2023-02-28T01:03:23;63.35;;;24.17;;
48363;SDS011;34170;54.364;18.582;2023-02-28T01:05:50;60.95;;;24.75;;
48363;SDS011;34170;54.364;18.582;2023-02-28T01:08:20;56.40;;;24.90;;
48363;SDS011;34170;54.364;18.582;2023-02-28T01:10:47;58.17;;;24.70;;
48363;SDS011;34170;54.364;18.582;2023-02-28T01:13:15;55.30;;;23.58;;
48363;SDS011;34170;54.364;18.582;2023-02-28T01:15:49;54.13;;;22.52;;
48363;SDS011;34170;54.364;18.582;2023-02-28T01:18:19;58.35;;;23.98;;
48363;SDS011;34170;54.364;18.582;2023-02-28T01:20:47;61.53;;;25.27;;
48363;SDS011;34170;54.364;18.582;2023-02-28T01:23:16;62.42;;;24.45;;
48363;SDS011;34170;54.364;18.582;2023-02-28T01:25:43;56.05;;;23.33;;
48363;SDS011;34170;54.364;18.582;2023-02-28T01:28:11;62.88;;;24.63;;
48363;SDS011;34170;54.364;18.582;2023-02-28T01:30:38;66.28;;;25.92;;
48363;SDS011;34170;54.364;18.582;2023-02-28T01:33:06;66.10;;;25.27;;
48363;SDS011;34170;54.364;18.582;2023-02-28T01:35:34;65.63;;;27.17;;
48363;SDS011;34170;54.364;18.582;2023-02-28T01:38:02;65.57;;;27.25;;
48363;SDS011;34170;54.364;18.582;2023-02-28T01:40:46;66.03;;;26.77;;
48363;SDS011;34170;54.364;18.582;2023-02-28T01:43:28;64.30;;;26.60;;
48363;SDS011;34170;54.364;18.582;2023-02-28T01:45:58;64.63;;;24.40;;
48363;SDS011;34170;54.364;18.582;2023-02-28T01:48:27;61.00;;;24.70;;
48363;SDS011;34170;54.364;18.582;2023-02-28T01:51:04;53.95;;;21.35;;
48363;SDS011;34170;54.364;18.582;2023-02-28T01:53:41;49.67;;;22.02;;
48363;SDS011;34170;54.364;18.582;2023-02-28T01:56:20;56.42;;;22.77;;
48363;SDS011;34170;54.364;18.582;2023-02-28T01:58:53;51.92;;;21.55;;
48363;SDS011;34170;54.364;18.582;2023-02-28T02:01:22;51.55;;;21.73;;
48363;SDS011;34170;54.364;18.582;2023-02-28T02:03:54;54.83;;;21.38;;
48363;SDS011;34170;54.364;18.582;2023-02-28T02:06:25;49.95;;;21.55;;
48363;SDS011;34170;54.364;18.582;2023-02-28T02:08:57;56.80;;;22.80;;
48363;SDS011;34170;54.364;18.582;2023-02-28T02:11:24;56.58;;;20.85;;
48363;SDS011;34170;54.364;18.582;2023-02-28T02:17:41;47.88;;;19.38;;
48363;SDS011;34170;54.364;18.582;2023-02-28T02:28:17;43.90;;;17.13;;
48363;SDS011;34170;54.364;18.582;2023-02-28T02:31:17;42.70;;;16.27;;
48363;SDS011;34170;54.364;18.582;2023-02-28T02:34:40;40.53;;;17.95;;
48363;SDS011;34170;54.364;18.582;2023-02-28T02:37:24;53.45;;;21.15;;
48363;SDS011;34170;54.364;18.582;2023-02-28T02:45:17;48.72;;;18.65;;
48363;SDS011;34170;54.364;18.582;2023-02-28T02:47:53;42.03;;;17.58;;
48363;SDS011;34170;54.364;18.582;2023-02-28T02:50:25;45.15;;;17.38;;
48363;SDS011;34170;54.364;18.582;2023-02-28T02:52:58;48.35;;;17.52;;
48363;SDS011;34170;54.364;18.582;2023-02-28T02:55:29;41.03;;;16.73;;
48363;SDS011;34170;54.364;18.582;2023-02-28T02:58:02;37.25;;;15.30;;
48363;SDS011;34170;54.364;18.582;2023-02-28T03:00:38;38.42;;;14.45;;
48363;SDS011;34170;54.364;18.582;2023-02-28T03:03:10;35.83;;;13.88;;
48363;SDS011;34170;54.364;18.582;2023-02-28T03:05:41;38.88;;;14.10;;
48363;SDS011;34170;54.364;18.582;2023-02-28T03:08:14;40.65;;;14.73;;
48363;SDS011;34170;54.364;18.582;2023-02-28T03:10:42;38.03;;;16.42;;
48363;SDS011;34170;54.364;18.582;2023-02-28T03:21:36;43.78;;;16.77;;
48363;SDS011;34170;54.364;18.582;2023-02-28T03:24:23;45.60;;;16.73;;
48363;SDS011;34170;54.364;18.582;2023-02-28T03:27:21;48.50;;;18.73;;
48363;SDS011;34170;54.364;18.582;2023-02-28T03:29:59;44.88;;;17.80;;
48363;SDS011;34170;54.364;18.582;2023-02-28T03:32:34;45.72;;;17.77;;
48363;SDS011;34170;54.364;18.582;2023-02-28T03:35:10;48.95;;;18.90;;
48363;SDS011;34170;54.364;18.582;2023-02-28T03:37:41;47.85;;;18.17;;
48363;SDS011;34170;54.364;18.582;2023-02-28T03:40:15;46.13;;;17.43;;
48363;SDS011;34170;54.364;18.582;2023-02-28T03:42:50;41.15;;;17.55;;
48363;SDS011;34170;54.364;18.582;2023-02-28T03:45:22;40.75;;;15.70;;
48363;SDS011;34170;54.364;18.582;2023-02-28T03:53:42;41.90;;;15.45;;
48363;SDS011;34170;54.364;18.582;2023-02-28T03:55:48;36.13;;;16.23;;
48363;SDS011;34170;54.364;18.582;2023-02-28T03:58:24;38.25;;;14.52;;
48363;SDS011;34170;54.364;18.582;2023-02-28T04:00:57;38.15;;;14.40;;
48363;SDS011;34170;54.364;18.582;2023-02-28T04:03:36;39.17;;;15.60;;
48363;SDS011;34170;54.364;18.582;2023-02-28T04:06:05;45.17;;;15.13;;
48363;SDS011;34170;54.364;18.582;2023-02-28T04:08:35;36.08;;;15.18;;
48363;SDS011;34170;54.364;18.582;2023-02-28T04:11:37;36.10;;;14.38;;
48363;SDS011;34170;54.364;18.582;2023-02-28T04:14:04;39.67;;;15.23;;
48363;SDS011;34170;54.364;18.582;2023-02-28T04:16:34;40.10;;;15.05;;
48363;SDS011;34170;54.364;18.582;2023-02-28T04:19:05;39.97;;;15.82;;
48363;SDS011;34170;54.364;18.582;2023-02-28T04:21:35;40.30;;;14.55;;
48363;SDS011;34170;54.364;18.582;2023-02-28T04:24:12;40.67;;;14.75;;
48363;SDS011;34170;54.364;18.582;2023-02-28T04:26:43;37.85;;;15.30;;
48363;SDS011;34170;54.364;18.582;2023-02-28T04:29:14;34.42;;;12.88;;
48363;SDS011;34170;54.364;18.582;2023-02-28T04:31:47;35.92;;;13.23;;
48363;SDS011;34170;54.364;18.582;2023-02-28T04:34:15;29.95;;;13.45;;
48363;SDS011;34170;54.364;18.582;2023-02-28T04:36:43;31.67;;;14.10;;
48363;SDS011;34170;54.364;18.582;2023-02-28T04:39:12;35.78;;;13.90;;
48363;SDS011;34170;54.364;18.582;2023-02-28T04:41:40;36.70;;;14.45;;
48363;SDS011;34170;54.364;18.582;2023-02-28T04:44:07;35.40;;;12.80;;
48363;SDS011;34170;54.364;18.582;2023-02-28T04:46:35;35.80;;;12.82;;
48363;SDS011;34170;54.364;18.582;2023-02-28T04:49:03;38.83;;;11.75;;
48363;SDS011;34170;54.364;18.582;2023-02-28T04:51:30;29.70;;;12.38;;
48363;SDS011;34170;54.364;18.582;2023-02-28T04:53:58;31.00;;;13.05;;
48363;SDS011;34170;54.364;18.582;2023-02-28T04:56:25;34.65;;;12.85;;
48363;SDS011;34170;54.364;18.582;2023-02-28T04:58:53;31.50;;;13.82;;
48363;SDS011;34170;54.364;18.582;2023-02-28T05:03:49;33.88;;;13.25;;
48363;SDS011;34170;54.364;18.582;2023-02-28T05:06:17;36.97;;;14.20;;
48363;SDS011;34170;54.364;18.582;2023-02-28T05:08:47;31.10;;;12.88;;
48363;SDS011;34170;54.364;18.582;2023-02-28T05:14:06;35.70;;;13.18;;
48363;SDS011;34170;54.364;18.582;2023-02-28T05:16:37;32.25;;;13.63;;
48363;SDS011;34170;54.364;18.582;2023-02-28T05:19:04;30.00;;;13.27;;
48363;SDS011;34170;54.364;18.582;2023-02-28T05:26:34;37.83;;;14.32;;
48363;SDS011;34170;54.364;18.582;2023-02-28T05:31:32;33.33;;;13.45;;
48363;SDS011;34170;54.364;18.582;2023-02-28T05:34:00;31.15;;;12.80;;
48363;SDS011;34170;54.364;18.582;2023-02-28T05:36:28;30.48;;;12.20;;
48363;SDS011;34170;54.364;18.582;2023-02-28T05:38:55;30.90;;;12.82;;
48363;SDS011;34170;54.364;18.582;2023-02-28T05:41:23;31.83;;;13.57;;
48363;SDS011;34170;54.364;18.582;2023-02-28T05:43:50;30.77;;;12.90;;
48363;SDS011;34170;54.364;18.582;2023-02-28T05:46:18;30.98;;;12.13;;
48363;SDS011;34170;54.364;18.582;2023-02-28T05:48:46;30.23;;;11.48;;
48363;SDS011;34170;54.364;18.582;2023-02-28T05:51:15;28.15;;;12.20;;
48363;SDS011;34170;54.364;18.582;2023-02-28T05:53:43;29.05;;;12.07;;
48363;SDS011;34170;54.364;18.582;2023-02-28T05:56:11;37.92;;;13.60;;
48363;SDS011;34170;54.364;18.582;2023-02-28T05:58:38;35.60;;;13.57;;
48363;SDS011;34170;54.364;18.582;2023-02-28T06:04:09;33.10;;;13.38;;
48363;SDS011;34170;54.364;18.582;2023-02-28T06:06:55;30.58;;;12.52;;
48363;SDS011;34170;54.364;18.582;2023-02-28T06:09:24;30.20;;;11.98;;
48363;SDS011;34170;54.364;18.582;2023-02-28T06:11:52;26.98;;;11.95;;
48363;SDS011;34170;54.364;18.582;2023-02-28T06:14:19;25.75;;;10.38;;
48363;SDS011;34170;54.364;18.582;2023-02-28T06:16:47;32.40;;;10.70;;
48363;SDS011;34170;54.364;18.582;2023-02-28T06:19:15;27.63;;;10.88;;
48363;SDS011;34170;54.364;18.582;2023-02-28T06:21:43;27.30;;;11.75;;
48363;SDS011;34170;54.364;18.582;2023-02-28T06:24:10;26.65;;;11.70;;
48363;SDS011;34170;54.364;18.582;2023-02-28T06:26:38;27.30;;;10.82;;
48363;SDS011;34170;54.364;18.582;2023-02-28T06:29:05;27.73;;;11.20;;
48363;SDS011;34170;54.364;18.582;2023-02-28T06:31:33;30.33;;;10.85;;
48363;SDS011;34170;54.364;18.582;2023-02-28T06:34:00;20.75;;;9.95;;
48363;SDS011;34170;54.364;18.582;2023-02-28T06:36:28;24.48;;;9.73;;
48363;SDS011;34170;54.364;18.582;2023-02-28T06:38:55;23.80;;;10.90;;
48363;SDS011;34170;54.364;18.582;2023-02-28T06:41:24;21.02;;;10.43;;
48363;SDS011;34170;54.364;18.582;2023-02-28T06:43:53;20.05;;;10.30;;
48363;SDS011;34170;54.364;18.582;2023-02-28T06:46:21;22.50;;;9.90;;
48363;SDS011;34170;54.364;18.582;2023-02-28T06:48:49;21.23;;;9.88;;
48363;SDS011;34170;54.364;18.582;2023-02-28T06:51:18;22.33;;;11.02;;
48363;SDS011;34170;54.364;18.582;2023-02-28T06:53:49;22.98;;;10.60;;
48363;SDS011;34170;54.364;18.582;2023-02-28T06:56:17;22.23;;;10.88;;
48363;SDS011;34170;54.364;18.582;2023-02-28T06:58:47;27.92;;;10.98;;
48363;SDS011;34170;54.364;18.582;2023-02-28T07:01:16;25.52;;;11.43;;
48363;SDS011;34170;54.364;18.582;2023-02-28T07:03:44;21.42;;;10.30;;
48363;SDS011;34170;54.364;18.582;2023-02-28T07:06:12;23.05;;;10.90;;
48363;SDS011;34170;54.364;18.582;2023-02-28T07:08:39;24.40;;;11.77;;
48363;SDS011;34170;54.364;18.582;2023-02-28T07:11:08;20.10;;;11.27;;
48363;SDS011;34170;54.364;18.582;2023-02-28T07:13:35;17.23;;;9.02;;
48363;SDS011;34170;54.364;18.582;2023-02-28T07:16:04;20.15;;;9.30;;
48363;SDS011;34170;54.364;18.582;2023-02-28T07:18:34;15.83;;;9.60;;
48363;SDS011;34170;54.364;18.582;2023-02-28T07:21:03;20.60;;;9.43;;
48363;SDS011;34170;54.364;18.582;2023-02-28T07:23:32;18.88;;;8.50;;
48363;SDS011;34170;54.364;18.582;2023-02-28T07:25:59;18.85;;;9.00;;
48363;SDS011;34170;54.364;18.582;2023-02-28T07:28:27;13.82;;;7.50;;
48363;SDS011;34170;54.364;18.582;2023-02-28T07:30:55;17.17;;;8.77;;
48363;SDS011;34170;54.364;18.582;2023-02-28T07:33:22;19.52;;;8.32;;
48363;SDS011;34170;54.364;18.582;2023-02-28T07:35:51;15.82;;;7.88;;
48363;SDS011;34170;54.364;18.582;2023-02-28T07:38:18;15.48;;;7.95;;
48363;SDS011;34170;54.364;18.582;2023-02-28T07:40:46;14.95;;;8.57;;
48363;SDS011;34170;54.364;18.582;2023-02-28T07:43:13;18.45;;;9.05;;
48363;SDS011;34170;54.364;18.582;2023-02-28T07:45:41;18.98;;;10.40;;
48363;SDS011;34170;54.364;18.582;2023-02-28T07:48:08;20.40;;;9.18;;
48363;SDS011;34170;54.364;18.582;2023-02-28T07:50:37;20.23;;;9.57;;
48363;SDS011;34170;54.364;18.582;2023-02-28T07:53:04;17.80;;;9.07;;
48363;SDS011;34170;54.364;18.582;2023-02-28T07:55:32;18.98;;;9.35;;
48363;SDS011;34170;54.364;18.582;2023-02-28T07:57:59;18.35;;;9.68;;
48363;SDS011;34170;54.364;18.582;2023-02-28T08:00:27;20.20;;;8.95;;
48363;SDS011;34170;54.364;18.582;2023-02-28T08:02:55;17.83;;;9.00;;
48363;SDS011;34170;54.364;18.582;2023-02-28T08:05:23;19.98;;;10.15;;
48363;SDS011;34170;54.364;18.582;2023-02-28T08:07:50;20.70;;;9.70;;
48363;SDS011;34170;54.364;18.582;2023-02-28T08:10:18;20.52;;;10.00;;
48363;SDS011;34170;54.364;18.582;2023-02-28T08:12:45;19.85;;;9.98;;
48363;SDS011;34170;54.364;18.582;2023-02-28T08:15:13;21.00;;;10.10;;
48363;SDS011;34170;54.364;18.582;2023-02-28T08:17:40;20.05;;;10.25;;
48363;SDS011;34170;54.364;18.582;2023-02-28T08:20:08;16.80;;;9.85;;
48363;SDS011;34170;54.364;18.582;2023-02-28T08:22:37;20.50;;;9.80;;
48363;SDS011;34170;54.364;18.582;2023-02-28T08:25:04;20.58;;;9.60;;
48363;SDS011;34170;54.364;18.582;2023-02-28T08:27:34;19.85;;;9.63;;
48363;SDS011;34170;54.364;18.582;2023-02-28T08:30:02;16.90;;;9.20;;
48363;SDS011;34170;54.364;18.582;2023-02-28T08:32:31;16.92;;;9.20;;
48363;SDS011;34170;54.364;18.582;2023-02-28T08:35:00;20.88;;;9.68;;
48363;SDS011;34170;54.364;18.582;2023-02-28T08:37:28;21.73;;;8.90;;
48363;SDS011;34170;54.364;18.582;2023-02-28T08:39:56;18.95;;;9.27;;
48363;SDS011;34170;54.364;18.582;2023-02-28T08:42:23;20.42;;;9.38;;
48363;SDS011;34170;54.364;18.582;2023-02-28T08:44:51;15.50;;;8.48;;
48363;SDS011;34170;54.364;18.582;2023-02-28T08:47:18;18.50;;;8.73;;
48363;SDS011;34170;54.364;18.582;2023-02-28T08:49:46;17.08;;;7.95;;
48363;SDS011;34170;54.364;18.582;2023-02-28T08:52:13;19.08;;;9.30;;
48363;SDS011;34170;54.364;18.582;2023-02-28T08:54:41;18.75;;;8.55;;
48363;SDS011;34170;54.364;18.582;2023-02-28T08:57:08;16.17;;;8.13;;
48363;SDS011;34170;54.364;18.582;2023-02-28T08:59:36;14.48;;;7.57;;
48363;SDS011;34170;54.364;18.582;2023-02-28T09:02:03;16.58;;;7.85;;
48363;SDS011;34170;54.364;18.582;2023-02-28T09:04:30;15.30;;;7.88;;
48363;SDS011;34170;54.364;18.582;2023-02-28T09:06:58;17.48;;;7.63;;
48363;SDS011;34170;54.364;18.582;2023-02-28T09:09:25;18.67;;;7.80;;
48363;SDS011;34170;54.364;18.582;2023-02-28T09:11:55;19.88;;;8.27;;
48363;SDS011;34170;54.364;18.582;2023-02-28T09:14:23;20.25;;;8.73;;
48363;SDS011;34170;54.364;18.582;2023-02-28T09:16:50;19.45;;;9.18;;
48363;SDS011;34170;54.364;18.582;2023-02-28T09:19:18;18.40;;;8.95;;
48363;SDS011;34170;54.364;18.582;2023-02-28T09:21:45;15.45;;;7.38;;
48363;SDS011;34170;54.364;18.582;2023-02-28T09:24:13;17.00;;;8.30;;
48363;SDS011;34170;54.364;18.582;2023-02-28T09:26:41;16.08;;;8.15;;
48363;SDS011;34170;54.364;18.582;2023-02-28T09:29:29;17.90;;;8.85;;
48363;SDS011;34170;54.364;18.582;2023-02-28T09:31:58;24.05;;;11.00;;
48363;SDS011;34170;54.364;18.582;2023-02-28T09:34:27;20.90;;;10.30;;
48363;SDS011;34170;54.364;18.582;2023-02-28T09:36:57;18.40;;;10.02;;
48363;SDS011;34170;54.364;18.582;2023-02-28T09:39:25;19.05;;;9.63;;
48363;SDS011;34170;54.364;18.582;2023-02-28T09:41:54;21.13;;;9.85;;
48363;SDS011;34170;54.364;18.582;2023-02-28T09:44:35;20.58;;;9.55;;
48363;SDS011;34170;54.364;18.582;2023-02-28T09:49:52;18.35;;;9.30;;
48363;SDS011;34170;54.364;18.582;2023-02-28T09:52:25;17.05;;;8.25;;
48363;SDS011;34170;54.364;18.582;2023-02-28T09:57:46;14.45;;;7.10;;
48363;SDS011;34170;54.364;18.582;2023-02-28T10:00:15;11.85;;;6.40;;
48363;SDS011;34170;54.364;18.582;2023-02-28T10:05:19;11.70;;;5.22;;
48363;SDS011;34170;54.364;18.582;2023-02-28T10:08:00;9.65;;;4.80;;
48363;SDS011;34170;54.364;18.582;2023-02-28T10:10:54;6.68;;;4.20;;
48363;SDS011;34170;54.364;18.582;2023-02-28T10:13:32;8.35;;;4.38;;
48363;SDS011;34170;54.364;18.582;2023-02-28T10:18:35;9.25;;;4.47;;
48363;SDS011;34170;54.364;18.582;2023-02-28T10:23:45;10.30;;;5.03;;
48363;SDS011;34170;54.364;18.582;2023-02-28T10:26:15;10.00;;;4.57;;
48363;SDS011;34170;54.364;18.582;2023-02-28T10:28:44;9.40;;;4.82;;
48363;SDS011;34170;54.364;18.582;2023-02-28T10:31:14;8.40;;;4.80;;
48363;SDS011;34170;54.364;18.582;2023-02-28T10:33:45;10.85;;;5.65;;
48363;SDS011;34170;54.364;18.582;2023-02-28T10:36:17;10.07;;;5.55;;
48363;SDS011;34170;54.364;18.582;2023-02-28T10:38:48;11.07;;;5.70;;
48363;SDS011;34170;54.364;18.582;2023-02-28T10:41:27;11.40;;;5.78;;
48363;SDS011;34170;54.364;18.582;2023-02-28T10:44:13;12.05;;;6.00;;
48363;SDS011;34170;54.364;18.582;2023-02-28T10:46:45;10.52;;;5.93;;
48363;SDS011;34170;54.364;18.582;2023-02-28T10:49:28;12.65;;;5.38;;
48363;SDS011;34170;54.364;18.582;2023-02-28T10:51:57;12.70;;;5.13;;
48363;SDS011;34170;54.364;18.582;2023-02-28T10:54:28;10.25;;;5.20;;
48363;SDS011;34170;54.364;18.582;2023-02-28T10:57:05;10.95;;;5.28;;
48363;SDS011;34170;54.364;18.582;2023-02-28T10:59:36;12.52;;;5.20;;
48363;SDS011;34170;54.364;18.582;2023-02-28T11:02:11;11.55;;;5.13;;
48363;SDS011;34170;54.364;18.582;2023-02-28T11:07:54;11.77;;;4.88;;
48363;SDS011;34170;54.364;18.582;2023-02-28T11:10:25;9.73;;;4.53;;
48363;SDS011;34170;54.364;18.582;2023-02-28T11:12:56;11.80;;;4.75;;
48363;SDS011;34170;54.364;18.582;2023-02-28T11:15:27;6.78;;;3.38;;
48363;SDS011;34170;54.364;18.582;2023-02-28T11:18:02;8.07;;;4.00;;
48363;SDS011;34170;54.364;18.582;2023-02-28T11:20:54;8.23;;;4.20;;
48363;SDS011;34170;54.364;18.582;2023-02-28T11:23:25;7.53;;;3.63;;
48363;SDS011;34170;54.364;18.582;2023-02-28T11:25:56;8.40;;;3.50;;
48363;SDS011;34170;54.364;18.582;2023-02-28T11:31:37;8.18;;;3.63;;
48363;SDS011;34170;54.364;18.582;2023-02-28T11:33:50;5.72;;;2.70;;
48363;SDS011;34170;54.364;18.582;2023-02-28T11:36:23;5.72;;;2.75;;
48363;SDS011;34170;54.364;18.582;2023-02-28T11:38:55;6.05;;;2.78;;
48363;SDS011;34170;54.364;18.582;2023-02-28T11:46:56;6.45;;;1.88;;
48363;SDS011;34170;54.364;18.582;2023-02-28T11:49:32;3.83;;;1.77;;
48363;SDS011;34170;54.364;18.582;2023-02-28T11:54:50;7.53;;;2.47;;
48363;SDS011;34170;54.364;18.582;2023-02-28T12:11:30;7.50;;;2.58;;
48363;SDS011;34170;54.364;18.582;2023-02-28T12:28:54;6.38;;;1.88;;
48363;SDS011;34170;54.364;18.582;2023-02-28T12:31:34;5.05;;;2.10;;
48363;SDS011;34170;54.364;18.582;2023-02-28T12:34:07;4.55;;;1.85;;
48363;SDS011;34170;54.364;18.582;2023-02-28T12:36:39;8.65;;;2.47;;
48363;SDS011;34170;54.364;18.582;2023-02-28T12:39:23;6.97;;;2.13;;
48363;SDS011;34170;54.364;18.582;2023-02-28T12:42:22;6.70;;;2.38;;
48363;SDS011;34170;54.364;18.582;2023-02-28T12:45:03;5.28;;;2.35;;
48363;SDS011;34170;54.364;18.582;2023-02-28T12:47:38;7.00;;;3.00;;
48363;SDS011;34170;54.364;18.582;2023-02-28T12:50:09;5.32;;;2.20;;
48363;SDS011;34170;54.364;18.582;2023-02-28T12:52:52;4.63;;;1.88;;
48363;SDS011;34170;54.364;18.582;2023-02-28T13:09:14;3.15;;;1.77;;
48363;SDS011;34170;54.364;18.582;2023-02-28T13:12:02;3.63;;;1.75;;
48363;SDS011;34170;54.364;18.582;2023-02-28T13:14:41;8.35;;;1.35;;
48363;SDS011;34170;54.364;18.582;2023-02-28T13:19:37;3.53;;;1.30;;
48363;SDS011;34170;54.364;18.582;2023-02-28T13:27:51;3.78;;;1.77;;
48363;SDS011;34170;54.364;18.582;2023-02-28T13:38:59;5.05;;;2.17;;
48363;SDS011;34170;54.364;18.582;2023-02-28T13:41:47;4.53;;;1.85;;
48363;SDS011;34170;54.364;18.582;2023-02-28T13:44:23;4.65;;;1.70;;
48363;SDS011;34170;54.364;18.582;2023-02-28T14:09:16;8.30;;;2.05;;
48363;SDS011;34170;54.364;18.582;2023-02-28T14:11:51;7.05;;;1.90;;
48363;SDS011;34170;54.364;18.582;2023-02-28T14:14:53;4.63;;;2.08;;
48363;SDS011;34170;54.364;18.582;2023-02-28T14:17:14;5.30;;;2.03;;
48363;SDS011;34170;54.364;18.582;2023-02-28T14:19:46;5.07;;;1.90;;
48363;SDS011;34170;54.364;18.582;2023-02-28T14:33:24;8.73;;;2.60;;
48363;SDS011;34170;54.364;18.582;2023-02-28T14:38:37;5.80;;;2.63;;
48363;SDS011;34170;54.364;18.582;2023-02-28T14:41:33;15.35;;;8.77;;
48363;SDS011;34170;54.364;18.582;2023-02-28T14:44:19;7.93;;;2.67;;
48363;SDS011;34170;54.364;18.582;2023-02-28T14:46:55;5.60;;;2.90;;
48363;SDS011;34170;54.364;18.582;2023-02-28T14:49:44;6.60;;;2.92;;
48363;SDS011;34170;54.364;18.582;2023-02-28T14:55:12;7.63;;;3.10;;
48363;SDS011;34170;54.364;18.582;2023-02-28T14:57:51;8.10;;;3.25;;
48363;SDS011;34170;54.364;18.582;2023-02-28T15:02:50;6.45;;;3.53;;
48363;SDS011;34170;54.364;18.582;2023-02-28T15:05:37;10.77;;;3.55;;
48363;SDS011;34170;54.364;18.582;2023-02-28T15:08:09;8.02;;;3.53;;
48363;SDS011;34170;54.364;18.582;2023-02-28T15:10:44;11.43;;;4.18;;
48363;SDS011;34170;54.364;18.582;2023-02-28T15:13:17;8.02;;;3.97;;
48363;SDS011;34170;54.364;18.582;2023-02-28T15:21:05;9.93;;;4.63;;
48363;SDS011;34170;54.364;18.582;2023-02-28T15:23:35;8.52;;;3.97;;
48363;SDS011;34170;54.364;18.582;2023-02-28T15:26:04;11.48;;;4.35;;
48363;SDS011;34170;54.364;18.582;2023-02-28T15:28:33;9.73;;;4.20;;
48363;SDS011;34170;54.364;18.582;2023-02-28T15:31:01;13.55;;;5.00;;
48363;SDS011;34170;54.364;18.582;2023-02-28T15:33:31;10.07;;;4.22;;
48363;SDS011;34170;54.364;18.582;2023-02-28T15:36:04;8.60;;;3.72;;
48363;SDS011;34170;54.364;18.582;2023-02-28T15:38:34;8.90;;;4.03;;
48363;SDS011;34170;54.364;18.582;2023-02-28T15:41:03;9.20;;;3.85;;
48363;SDS011;34170;54.364;18.582;2023-02-28T15:43:36;14.15;;;4.90;;
48363;SDS011;34170;54.364;18.582;2023-02-28T15:46:06;7.53;;;3.60;;
48363;SDS011;34170;54.364;18.582;2023-02-28T15:48:53;10.70;;;4.43;;
48363;SDS011;34170;54.364;18.582;2023-02-28T15:51:36;14.30;;;4.70;;
48363;SDS011;34170;54.364;18.582;2023-02-28T15:54:06;13.15;;;5.38;;
48363;SDS011;34170;54.364;18.582;2023-02-28T15:56:38;14.70;;;4.40;;
48363;SDS011;34170;54.364;18.582;2023-02-28T15:59:14;12.55;;;4.63;;
48363;SDS011;34170;54.364;18.582;2023-02-28T16:02:01;12.82;;;4.40;;
48363;SDS011;34170;54.364;18.582;2023-02-28T16:04:54;13.35;;;5.53;;
48363;SDS011;34170;54.364;18.582;2023-02-28T16:07:43;13.88;;;5.38;;
48363;SDS011;34170;54.364;18.582;2023-02-28T16:10:11;13.63;;;5.80;;
48363;SDS011;34170;54.364;18.582;2023-02-28T16:12:43;13.15;;;4.95;;
48363;SDS011;34170;54.364;18.582;2023-02-28T16:17:47;13.18;;;5.07;;
48363;SDS011;34170;54.364;18.582;2023-02-28T16:20:25;11.10;;;4.88;;
48363;SDS011;34170;54.364;18.582;2023-02-28T16:22:55;15.20;;;5.70;;
48363;SDS011;34170;54.364;18.582;2023-02-28T16:25:24;12.32;;;5.00;;
48363;SDS011;34170;54.364;18.582;2023-02-28T16:28:00;16.48;;;5.90;;
48363;SDS011;34170;54.364;18.582;2023-02-28T16:30:28;12.95;;;6.10;;
48363;SDS011;34170;54.364;18.582;2023-02-28T16:32:59;10.77;;;5.10;;
48363;SDS011;34170;54.364;18.582;2023-02-28T16:35:27;12.73;;;5.63;;
48363;SDS011;34170;54.364;18.582;2023-02-28T16:37:54;14.55;;;5.68;;
48363;SDS011;34170;54.364;18.582;2023-02-28T16:40:23;16.90;;;6.10;;
48363;SDS011;34170;54.364;18.582;2023-02-28T16:42:53;12.98;;;5.50;;
48363;SDS011;34170;54.364;18.582;2023-02-28T16:45:26;14.05;;;6.15;;
48363;SDS011;34170;54.364;18.582;2023-02-28T16:47:55;13.93;;;5.90;;
48363;SDS011;34170;54.364;18.582;2023-02-28T16:50:24;13.32;;;5.70;;
48363;SDS011;34170;54.364;18.582;2023-02-28T16:52:54;15.23;;;5.45;;
48363;SDS011;34170;54.364;18.582;2023-02-28T16:55:22;15.38;;;6.40;;
48363;SDS011;34170;54.364;18.582;2023-02-28T16:57:51;15.35;;;5.95;;
48363;SDS011;34170;54.364;18.582;2023-02-28T17:00:22;15.70;;;6.00;;
48363;SDS011;34170;54.364;18.582;2023-02-28T17:02:50;14.77;;;6.63;;
48363;SDS011;34170;54.364;18.582;2023-02-28T17:05:18;17.50;;;7.22;;
48363;SDS011;34170;54.364;18.582;2023-02-28T17:07:47;15.43;;;6.28;;
48363;SDS011;34170;54.364;18.582;2023-02-28T17:10:16;17.70;;;6.38;;
48363;SDS011;34170;54.364;18.582;2023-02-28T17:12:51;18.75;;;7.00;;
48363;SDS011;34170;54.364;18.582;2023-02-28T17:15:22;23.17;;;7.57;;
48363;SDS011;34170;54.364;18.582;2023-02-28T17:17:49;19.85;;;7.78;;
48363;SDS011;34170;54.364;18.582;2023-02-28T17:20:18;17.95;;;7.30;;
48363;SDS011;34170;54.364;18.582;2023-02-28T17:22:51;22.38;;;7.57;;
48363;SDS011;34170;54.364;18.582;2023-02-28T17:25:19;18.40;;;6.78;;
48363;SDS011;34170;54.364;18.582;2023-02-28T17:27:48;19.42;;;7.00;;
48363;SDS011;34170;54.364;18.582;2023-02-28T17:30:20;18.25;;;7.30;;
48363;SDS011;34170;54.364;18.582;2023-02-28T17:32:50;15.45;;;5.97;;
48363;SDS011;34170;54.364;18.582;2023-02-28T17:35:17;17.52;;;6.22;;
48363;SDS011;34170;54.364;18.582;2023-02-28T17:37:45;17.85;;;6.13;;
48363;SDS011;34170;54.364;18.582;2023-02-28T17:40:16;13.43;;;6.20;;
48363;SDS011;34170;54.364;18.582;2023-02-28T17:42:46;16.85;;;6.28;;
48363;SDS011;34170;54.364;18.582;2023-02-28T17:45:13;18.77;;;6.75;;
48363;SDS011;34170;54.364;18.582;2023-02-28T17:47:43;17.92;;;7.03;;